sensor_id;sensor_type;location;lat;lon;timestamp;pressure;altitude;pressure_sealevel;temperature;humidity
55675;BME280;41562;44.330;23.802;2022-08-19T00:01:40;99777.81;;;25.67;67.25
55675;BME280;41562;44.330;23.802;2022-08-19T00:04:08;99773.06;;;25.57;68.79
55675;BME280;41562;44.330;23.802;2022-08-19T00:06:37;99780.81;;;25.48;68.15
55675;BME280;41562;44.330;23.802;2022-08-19T00:09:06;99788.31;;;25.58;68.43
55675;BME280;41562;44.330;23.802;2022-08-19T00:11:33;99783.19;;;25.53;69.37
55675;BME280;41562;44.330;23.802;2022-08-19T00:14:01;99794.84;;;25.43;69.68
55675;BME280;41562;44.330;23.802;2022-08-19T00:16:28;99789.38;;;25.43;69.49
55675;BME280;41562;44.330;23.802;2022-08-19T00:18:56;99786.25;;;25.44;69.71
55675;BME280;41562;44.330;23.802;2022-08-19T00:21:24;99783.09;;;25.39;70.04
55675;BME280;41562;44.330;23.802;2022-08-19T00:23:52;99786.56;;;25.36;69.19
55675;BME280;41562;44.330;23.802;2022-08-19T00:26:20;99791.25;;;25.32;68.91
55675;BME280;41562;44.330;23.802;2022-08-19T00:28:47;99788.50;;;25.32;68.89
55675;BME280;41562;44.330;23.802;2022-08-19T00:31:14;99781.03;;;25.25;69.44
55675;BME280;41562;44.330;23.802;2022-08-19T00:33:42;99784.94;;;25.24;69.51
55675;BME280;41562;44.330;23.802;2022-08-19T00:36:10;99786.94;;;25.31;69.40
55675;BME280;41562;44.330;23.802;2022-08-19T00:38:38;99778.34;;;25.29;69.87
55675;BME280;41562;44.330;23.802;2022-08-19T00:41:06;99783.75;;;25.21;69.91
55675;BME280;41562;44.330;23.802;2022-08-19T00:43:34;99771.66;;;25.22;69.66
55675;BME280;41562;44.330;23.802;2022-08-19T00:46:01;99765.00;;;25.23;69.82
55675;BME280;41562;44.330;23.802;2022-08-19T00:48:29;99770.03;;;25.18;70.15
55675;BME280;41562;44.330;23.802;2022-08-19T00:50:56;99767.72;;;25.20;69.90
55675;BME280;41562;44.330;23.802;2022-08-19T00:53:24;99772.34;;;25.09;70.57
55675;BME280;41562;44.330;23.802;2022-08-19T00:55:53;99773.06;;;25.02;71.38
55675;BME280;41562;44.330;23.802;2022-08-19T00:58:23;99772.69;;;25.04;71.07
55675;BME280;41562;44.330;23.802;2022-08-19T01:00:51;99767.88;;;24.90;71.93
55675;BME280;41562;44.330;23.802;2022-08-19T01:03:19;99768.31;;;24.96;71.42
55675;BME280;41562;44.330;23.802;2022-08-19T01:05:48;99765.50;;;24.89;71.25
55675;BME280;41562;44.330;23.802;2022-08-19T01:08:17;99761.28;;;24.98;70.67
55675;BME280;41562;44.330;23.802;2022-08-19T01:10:45;99769.47;;;24.95;71.67
55675;BME280;41562;44.330;23.802;2022-08-19T01:13:15;99763.91;;;24.84;71.85
55675;BME280;41562;44.330;23.802;2022-08-19T01:15:43;99769.03;;;24.89;71.64
55675;BME280;41562;44.330;23.802;2022-08-19T01:18:12;99774.41;;;24.82;72.36
55675;BME280;41562;44.330;23.802;2022-08-19T01:20:41;99772.47;;;24.82;72.04
55675;BME280;41562;44.330;23.802;2022-08-19T01:23:09;99769.75;;;24.86;72.00
55675;BME280;41562;44.330;23.802;2022-08-19T01:25:44;99775.13;;;24.72;71.99
55675;BME280;41562;44.330;23.802;2022-08-19T01:28:24;99772.84;;;24.81;70.12
55675;BME280;41562;44.330;23.802;2022-08-19T01:31:07;99769.06;;;24.93;70.12
55675;BME280;41562;44.330;23.802;2022-08-19T01:33:35;99785.09;;;24.91;69.90
55675;BME280;41562;44.330;23.802;2022-08-19T01:36:03;99778.44;;;24.92;69.66
55675;BME280;41562;44.330;23.802;2022-08-19T01:38:35;99784.75;;;24.99;70.03
55675;BME280;41562;44.330;23.802;2022-08-19T01:41:10;99787.84;;;24.98;69.09
55675;BME280;41562;44.330;23.802;2022-08-19T01:43:38;99798.78;;;24.94;69.20
55675;BME280;41562;44.330;23.802;2022-08-19T01:46:26;99799.56;;;24.91;69.33
55675;BME280;41562;44.330;23.802;2022-08-19T01:48:53;99804.59;;;24.89;69.34
55675;BME280;41562;44.330;23.802;2022-08-19T01:51:20;99798.78;;;24.94;69.21
55675;BME280;41562;44.330;23.802;2022-08-19T01:53:48;99797.22;;;24.93;69.45
55675;BME280;41562;44.330;23.802;2022-08-19T01:56:16;99789.00;;;24.93;69.03
55675;BME280;41562;44.330;23.802;2022-08-19T01:58:45;99792.09;;;24.92;69.78
55675;BME280;41562;44.330;23.802;2022-08-19T02:01:14;99783.56;;;24.97;68.66
55675;BME280;41562;44.330;23.802;2022-08-19T02:03:42;99788.25;;;24.96;68.84
55675;BME280;41562;44.330;23.802;2022-08-19T02:06:09;99799.94;;;24.93;68.70
55675;BME280;41562;44.330;23.802;2022-08-19T02:08:38;99807.34;;;24.89;68.93
55675;BME280;41562;44.330;23.802;2022-08-19T02:11:05;99801.28;;;24.73;69.58
55675;BME280;41562;44.330;23.802;2022-08-19T02:13:33;99815.00;;;24.76;69.68
55675;BME280;41562;44.330;23.802;2022-08-19T02:16:01;99812.19;;;24.69;70.15
55675;BME280;41562;44.330;23.802;2022-08-19T02:18:30;99814.97;;;24.73;69.75
55675;BME280;41562;44.330;23.802;2022-08-19T02:20:57;99812.22;;;24.73;69.91
55675;BME280;41562;44.330;23.802;2022-08-19T02:23:25;99814.22;;;24.76;69.74
55675;BME280;41562;44.330;23.802;2022-08-19T02:25:52;99805.56;;;24.70;70.15
55675;BME280;41562;44.330;23.802;2022-08-19T02:28:19;99805.13;;;24.65;70.39
55675;BME280;41562;44.330;23.802;2022-08-19T02:30:47;99812.09;;;24.59;70.53
55675;BME280;41562;44.330;23.802;2022-08-19T02:33:15;99815.66;;;24.63;70.23
55675;BME280;41562;44.330;23.802;2022-08-19T02:35:43;99807.03;;;24.61;70.42
55675;BME280;41562;44.330;23.802;2022-08-19T02:38:11;99810.91;;;24.60;70.69
55675;BME280;41562;44.330;23.802;2022-08-19T02:40:39;99815.16;;;24.54;71.17
55675;BME280;41562;44.330;23.802;2022-08-19T02:43:07;99823.34;;;24.54;71.41
55675;BME280;41562;44.330;23.802;2022-08-19T02:45:35;99824.59;;;24.60;71.00
55675;BME280;41562;44.330;23.802;2022-08-19T02:48:07;99823.84;;;25.00;68.33
55675;BME280;41562;44.330;23.802;2022-08-19T02:50:48;99820.91;;;25.22;67.70
55675;BME280;41562;44.330;23.802;2022-08-19T02:53:19;99832.13;;;25.58;67.34
55675;BME280;41562;44.330;23.802;2022-08-19T02:55:47;99832.94;;;25.58;67.87
55675;BME280;41562;44.330;23.802;2022-08-19T02:58:15;99829.88;;;25.71;66.53
55675;BME280;41562;44.330;23.802;2022-08-19T03:00:46;99828.34;;;25.73;66.75
55675;BME280;41562;44.330;23.802;2022-08-19T03:03:14;99838.44;;;25.66;66.82
55675;BME280;41562;44.330;23.802;2022-08-19T03:05:42;99832.06;;;25.47;68.06
55675;BME280;41562;44.330;23.802;2022-08-19T03:08:23;99838.75;;;25.53;67.25
55675;BME280;41562;44.330;23.802;2022-08-19T03:10:52;99840.69;;;25.53;67.28
55675;BME280;41562;44.330;23.802;2022-08-19T03:13:24;99833.59;;;25.45;67.56
55675;BME280;41562;44.330;23.802;2022-08-19T03:18:48;99850.00;;;25.45;67.17
55675;BME280;41562;44.330;23.802;2022-08-19T03:21:24;99855.38;;;25.31;68.21
55675;BME280;41562;44.330;23.802;2022-08-19T03:24:00;99855.44;;;25.38;67.43
55675;BME280;41562;44.330;23.802;2022-08-19T03:26:34;99856.63;;;25.40;67.81
55675;BME280;41562;44.330;23.802;2022-08-19T03:29:05;99859.25;;;25.22;68.56
55675;BME280;41562;44.330;23.802;2022-08-19T03:31:53;99850.69;;;25.31;68.52
55675;BME280;41562;44.330;23.802;2022-08-19T03:34:25;99865.88;;;25.21;69.12
55675;BME280;41562;44.330;23.802;2022-08-19T03:36:56;99855.59;;;25.11;69.43
55675;BME280;41562;44.330;23.802;2022-08-19T03:39:27;99866.09;;;25.02;70.00
55675;BME280;41562;44.330;23.802;2022-08-19T03:41:59;99870.69;;;24.91;70.57
55675;BME280;41562;44.330;23.802;2022-08-19T03:44:52;99862.56;;;24.65;72.25
55675;BME280;41562;44.330;23.802;2022-08-19T03:47:20;99863.63;;;24.90;70.91
55675;BME280;41562;44.330;23.802;2022-08-19T03:49:51;99865.09;;;24.84;71.30
55675;BME280;41562;44.330;23.802;2022-08-19T03:52:19;99861.78;;;24.64;72.26
55675;BME280;41562;44.330;23.802;2022-08-19T03:54:50;99873.69;;;24.86;71.49
55675;BME280;41562;44.330;23.802;2022-08-19T03:57:21;99861.16;;;24.81;71.12
55675;BME280;41562;44.330;23.802;2022-08-19T04:00:03;99870.78;;;25.02;70.15
55675;BME280;41562;44.330;23.802;2022-08-19T04:02:40;99879.00;;;24.68;71.58
55675;BME280;41562;44.330;23.802;2022-08-19T04:05:08;99879.41;;;25.07;69.97
55675;BME280;41562;44.330;23.802;2022-08-19T04:07:39;99881.03;;;25.12;69.86
55675;BME280;41562;44.330;23.802;2022-08-19T04:10:12;99882.66;;;25.16;69.87
55675;BME280;41562;44.330;23.802;2022-08-19T04:12:43;99886.22;;;25.24;69.27
55675;BME280;41562;44.330;23.802;2022-08-19T04:15:17;99898.00;;;25.32;69.17
55675;BME280;41562;44.330;23.802;2022-08-19T04:17:48;99892.81;;;25.19;69.47
55675;BME280;41562;44.330;23.802;2022-08-19T04:20:15;99892.72;;;25.09;70.30
55675;BME280;41562;44.330;23.802;2022-08-19T04:22:43;99888.28;;;24.94;70.77
55675;BME280;41562;44.330;23.802;2022-08-19T04:25:14;99899.00;;;25.13;70.18
55675;BME280;41562;44.330;23.802;2022-08-19T04:27:41;99900.75;;;25.32;69.21
55675;BME280;41562;44.330;23.802;2022-08-19T04:30:12;99900.69;;;24.88;71.36
55675;BME280;41562;44.330;23.802;2022-08-19T04:32:40;99898.59;;;24.74;72.06
55675;BME280;41562;44.330;23.802;2022-08-19T04:35:13;99902.16;;;24.78;71.98
55675;BME280;41562;44.330;23.802;2022-08-19T04:37:45;99897.41;;;25.08;70.91
55675;BME280;41562;44.330;23.802;2022-08-19T04:40:12;99907.59;;;25.11;71.23
55675;BME280;41562;44.330;23.802;2022-08-19T04:42:42;99912.31;;;25.14;71.27
55675;BME280;41562;44.330;23.802;2022-08-19T04:45:17;99899.38;;;25.11;71.15
55675;BME280;41562;44.330;23.802;2022-08-19T04:47:53;99901.38;;;25.14;70.96
55675;BME280;41562;44.330;23.802;2022-08-19T04:50:51;99910.25;;;25.04;71.72
55675;BME280;41562;44.330;23.802;2022-08-19T04:53:23;99909.03;;;24.98;72.19
55675;BME280;41562;44.330;23.802;2022-08-19T04:55:50;99907.47;;;24.97;71.85
55675;BME280;41562;44.330;23.802;2022-08-19T04:58:20;99902.63;;;24.87;72.69
55675;BME280;41562;44.330;23.802;2022-08-19T05:00:48;99908.47;;;24.85;72.61
55675;BME280;41562;44.330;23.802;2022-08-19T05:03:18;99912.00;;;24.86;73.03
55675;BME280;41562;44.330;23.802;2022-08-19T05:05:50;99906.31;;;24.65;73.67
55675;BME280;41562;44.330;23.802;2022-08-19T05:08:19;99904.13;;;24.81;72.97
55675;BME280;41562;44.330;23.802;2022-08-19T05:11:06;99901.66;;;24.69;73.73
55675;BME280;41562;44.330;23.802;2022-08-19T05:13:38;99903.25;;;24.70;74.21
55675;BME280;41562;44.330;23.802;2022-08-19T05:16:09;99901.22;;;24.67;74.48
55675;BME280;41562;44.330;23.802;2022-08-19T05:18:37;99905.63;;;24.75;73.82
55675;BME280;41562;44.330;23.802;2022-08-19T05:21:08;99902.91;;;24.75;73.80
55675;BME280;41562;44.330;23.802;2022-08-19T05:23:38;99910.66;;;25.03;73.25
55675;BME280;41562;44.330;23.802;2022-08-19T05:26:11;99904.34;;;24.99;73.13
55675;BME280;41562;44.330;23.802;2022-08-19T05:28:39;99903.41;;;24.88;74.22
55675;BME280;41562;44.330;23.802;2022-08-19T05:31:15;99901.13;;;24.90;73.48
55675;BME280;41562;44.330;23.802;2022-08-19T05:33:43;99897.78;;;24.73;75.18
55675;BME280;41562;44.330;23.802;2022-08-19T05:36:13;99901.25;;;25.00;73.78
55675;BME280;41562;44.330;23.802;2022-08-19T05:38:43;99895.34;;;24.98;74.18
55675;BME280;41562;44.330;23.802;2022-08-19T05:41:13;99903.56;;;24.98;74.72
55675;BME280;41562;44.330;23.802;2022-08-19T05:43:43;99899.38;;;25.11;74.81
55675;BME280;41562;44.330;23.802;2022-08-19T05:46:17;99902.13;;;25.11;75.45
55675;BME280;41562;44.330;23.802;2022-08-19T05:48:54;99902.16;;;25.15;75.37
55675;BME280;41562;44.330;23.802;2022-08-19T05:51:25;99894.34;;;25.17;75.18
55675;BME280;41562;44.330;23.802;2022-08-19T05:53:58;99903.19;;;25.44;72.88
55675;BME280;41562;44.330;23.802;2022-08-19T05:56:26;99892.81;;;25.63;71.73
55675;BME280;41562;44.330;23.802;2022-08-19T05:58:54;99895.72;;;25.85;72.81
55675;BME280;41562;44.330;23.802;2022-08-19T06:01:24;99895.81;;;26.02;69.12
55675;BME280;41562;44.330;23.802;2022-08-19T06:03:54;99893.63;;;26.29;68.10
55675;BME280;41562;44.330;23.802;2022-08-19T06:06:21;99889.00;;;26.51;66.45
55675;BME280;41562;44.330;23.802;2022-08-19T06:08:54;99886.81;;;26.99;64.61
55675;BME280;41562;44.330;23.802;2022-08-19T06:13:51;99890.75;;;27.16;63.91
55675;BME280;41562;44.330;23.802;2022-08-19T06:16:29;99884.50;;;27.30;64.97
55675;BME280;41562;44.330;23.802;2022-08-19T06:18:57;99887.63;;;27.35;62.51
55675;BME280;41562;44.330;23.802;2022-08-19T06:21:26;99889.97;;;27.40;62.82
55675;BME280;41562;44.330;23.802;2022-08-19T06:23:57;99887.25;;;27.54;62.48
55675;BME280;41562;44.330;23.802;2022-08-19T06:26:27;99893.09;;;27.46;62.68
55675;BME280;41562;44.330;23.802;2022-08-19T06:28:58;99892.72;;;27.47;62.74
55675;BME280;41562;44.330;23.802;2022-08-19T06:31:26;99896.22;;;27.83;61.28
55675;BME280;41562;44.330;23.802;2022-08-19T06:33:57;99895.81;;;27.95;61.57
55675;BME280;41562;44.330;23.802;2022-08-19T06:38:56;99886.31;;;28.28;62.67
55675;BME280;41562;44.330;23.802;2022-08-19T06:41:26;99894.59;;;28.21;61.77
55675;BME280;41562;44.330;23.802;2022-08-19T06:44:00;99884.78;;;28.20;60.35
55675;BME280;41562;44.330;23.802;2022-08-19T06:46:29;99882.28;;;28.58;59.61
55675;BME280;41562;44.330;23.802;2022-08-19T06:49:04;99886.84;;;28.86;58.86
55675;BME280;41562;44.330;23.802;2022-08-19T06:51:35;99890.97;;;29.18;60.07
55675;BME280;41562;44.330;23.802;2022-08-19T06:54:11;99883.88;;;29.17;56.89
55675;BME280;41562;44.330;23.802;2022-08-19T06:56:49;99888.63;;;29.13;57.11
55675;BME280;41562;44.330;23.802;2022-08-19T06:59:21;99892.25;;;29.55;55.85
55675;BME280;41562;44.330;23.802;2022-08-19T07:01:51;99890.00;;;29.43;56.82
55675;BME280;41562;44.330;23.802;2022-08-19T07:04:21;99890.09;;;29.73;57.63
55675;BME280;41562;44.330;23.802;2022-08-19T07:06:49;99889.47;;;30.00;56.56
55675;BME280;41562;44.330;23.802;2022-08-19T07:09:21;99892.47;;;29.75;55.77
55675;BME280;41562;44.330;23.802;2022-08-19T07:11:52;99886.44;;;29.87;55.43
55675;BME280;41562;44.330;23.802;2022-08-19T07:14:24;99900.13;;;30.35;56.00
55675;BME280;41562;44.330;23.802;2022-08-19T07:16:52;99892.16;;;30.41;56.22
55675;BME280;41562;44.330;23.802;2022-08-19T07:19:21;99886.38;;;30.62;51.98
55675;BME280;41562;44.330;23.802;2022-08-19T07:21:51;99891.63;;;30.80;54.23
55675;BME280;41562;44.330;23.802;2022-08-19T07:24:19;99892.38;;;30.84;52.63
55675;BME280;41562;44.330;23.802;2022-08-19T07:26:47;99893.06;;;30.91;49.69
55675;BME280;41562;44.330;23.802;2022-08-19T07:29:18;99889.25;;;30.82;50.55
55675;BME280;41562;44.330;23.802;2022-08-19T07:31:47;99889.66;;;31.10;51.15
55675;BME280;41562;44.330;23.802;2022-08-19T07:34:17;99887.22;;;31.12;50.62
55675;BME280;41562;44.330;23.802;2022-08-19T07:36:45;99893.81;;;31.22;51.00
55675;BME280;41562;44.330;23.802;2022-08-19T07:39:20;99885.53;;;31.22;49.51
55675;BME280;41562;44.330;23.802;2022-08-19T07:41:54;99891.81;;;31.23;49.49
55675;BME280;41562;44.330;23.802;2022-08-19T07:44:24;99886.09;;;31.10;48.17
55675;BME280;41562;44.330;23.802;2022-08-19T07:46:53;99884.38;;;31.43;47.40
55675;BME280;41562;44.330;23.802;2022-08-19T07:49:24;99890.34;;;31.41;46.41
55675;BME280;41562;44.330;23.802;2022-08-19T07:51:57;99889.84;;;31.46;48.51
55675;BME280;41562;44.330;23.802;2022-08-19T07:54:26;99897.97;;;31.80;47.61
55675;BME280;41562;44.330;23.802;2022-08-19T07:56:53;99891.78;;;31.73;47.66
55675;BME280;41562;44.330;23.802;2022-08-19T07:59:21;99896.91;;;31.94;46.71
55675;BME280;41562;44.330;23.802;2022-08-19T08:01:54;99896.63;;;31.88;46.56
55675;BME280;41562;44.330;23.802;2022-08-19T08:04:22;99895.44;;;32.09;46.48
55675;BME280;41562;44.330;23.802;2022-08-19T08:06:49;99897.88;;;32.47;48.17
55675;BME280;41562;44.330;23.802;2022-08-19T08:09:20;99897.81;;;32.30;47.64
55675;BME280;41562;44.330;23.802;2022-08-19T08:11:54;99896.72;;;32.44;45.79
55675;BME280;41562;44.330;23.802;2022-08-19T08:14:27;99885.16;;;32.49;50.07
55675;BME280;41562;44.330;23.802;2022-08-19T08:17:01;99883.44;;;32.55;48.62
55675;BME280;41562;44.330;23.802;2022-08-19T08:19:37;99888.25;;;32.51;47.06
55675;BME280;41562;44.330;23.802;2022-08-19T08:22:04;99874.53;;;32.64;47.68
55675;BME280;41562;44.330;23.802;2022-08-19T08:24:31;99881.78;;;32.78;47.70
55675;BME280;41562;44.330;23.802;2022-08-19T08:26:59;99878.16;;;32.97;44.71
55675;BME280;41562;44.330;23.802;2022-08-19T08:29:27;99882.22;;;32.76;45.60
55675;BME280;41562;44.330;23.802;2022-08-19T08:32:01;99885.88;;;32.89;44.66
55675;BME280;41562;44.330;23.802;2022-08-19T08:34:29;99888.25;;;33.07;44.80
55675;BME280;41562;44.330;23.802;2022-08-19T08:36:56;99882.66;;;32.75;44.57
55675;BME280;41562;44.330;23.802;2022-08-19T08:39:24;99887.16;;;33.01;45.19
55675;BME280;41562;44.330;23.802;2022-08-19T08:47:01;99870.19;;;32.63;43.84
55675;BME280;41562;44.330;23.802;2022-08-19T08:49:43;99866.47;;;32.73;43.60
55675;BME280;41562;44.330;23.802;2022-08-19T08:52:18;99875.91;;;32.92;43.39
55675;BME280;41562;44.330;23.802;2022-08-19T08:54:48;99861.97;;;32.79;42.66
55675;BME280;41562;44.330;23.802;2022-08-19T08:57:38;99865.44;;;32.27;43.51
55675;BME280;41562;44.330;23.802;2022-08-19T09:00:32;99866.00;;;32.39;43.77
55675;BME280;41562;44.330;23.802;2022-08-19T09:02:57;99859.63;;;32.58;43.20
55675;BME280;41562;44.330;23.802;2022-08-19T09:05:28;99853.00;;;32.55;42.81
55675;BME280;41562;44.330;23.802;2022-08-19T09:08:08;99857.00;;;32.70;42.30
55675;BME280;41562;44.330;23.802;2022-08-19T09:10:44;99854.00;;;32.81;42.65
55675;BME280;41562;44.330;23.802;2022-08-19T09:16:27;99837.22;;;33.04;42.15
55675;BME280;41562;44.330;23.802;2022-08-19T09:18:58;99836.16;;;33.14;42.21
55675;BME280;41562;44.330;23.802;2022-08-19T09:21:28;99839.50;;;33.26;44.25
55675;BME280;41562;44.330;23.802;2022-08-19T09:24:04;99838.50;;;33.48;46.70
55675;BME280;41562;44.330;23.802;2022-08-19T09:26:32;99835.78;;;33.61;39.22
55675;BME280;41562;44.330;23.802;2022-08-19T09:29:22;99835.78;;;33.61;45.15
55675;BME280;41562;44.330;23.802;2022-08-19T09:31:52;99838.44;;;33.65;45.50
55675;BME280;41562;44.330;23.802;2022-08-19T09:34:22;99843.66;;;33.79;44.63
55675;BME280;41562;44.330;23.802;2022-08-19T09:36:49;99840.78;;;33.82;45.01
55675;BME280;41562;44.330;23.802;2022-08-19T09:39:19;99829.34;;;33.80;45.20
55675;BME280;41562;44.330;23.802;2022-08-19T09:41:47;99829.38;;;33.93;45.32
55675;BME280;41562;44.330;23.802;2022-08-19T09:44:15;99829.34;;;33.80;43.12
55675;BME280;41562;44.330;23.802;2022-08-19T09:46:44;99828.13;;;33.65;45.01
55675;BME280;41562;44.330;23.802;2022-08-19T09:49:15;99824.41;;;33.72;40.71
55675;BME280;41562;44.330;23.802;2022-08-19T09:51:44;99822.78;;;33.74;42.17
55675;BME280;41562;44.330;23.802;2022-08-19T09:54:17;99820.41;;;33.44;39.92
55675;BME280;41562;44.330;23.802;2022-08-19T09:56:51;99819.94;;;33.62;40.39
55675;BME280;41562;44.330;23.802;2022-08-19T09:59:21;99815.47;;;33.64;41.99
55675;BME280;41562;44.330;23.802;2022-08-19T10:01:49;99818.38;;;33.61;41.32
55675;BME280;41562;44.330;23.802;2022-08-19T10:04:17;99823.13;;;33.60;39.93
55675;BME280;41562;44.330;23.802;2022-08-19T10:06:46;99813.72;;;33.58;41.29
55675;BME280;41562;44.330;23.802;2022-08-19T10:09:19;99814.81;;;33.60;43.36
55675;BME280;41562;44.330;23.802;2022-08-19T10:12:00;99799.31;;;33.63;41.85
55675;BME280;41562;44.330;23.802;2022-08-19T10:14:29;99802.41;;;33.65;43.11
55675;BME280;41562;44.330;23.802;2022-08-19T10:16:56;99798.75;;;33.68;40.31
55675;BME280;41562;44.330;23.802;2022-08-19T10:19:25;99798.28;;;33.57;41.08
55675;BME280;41562;44.330;23.802;2022-08-19T10:21:53;99796.38;;;33.53;40.68
55675;BME280;41562;44.330;23.802;2022-08-19T10:24:29;99792.16;;;33.78;40.80
55675;BME280;41562;44.330;23.802;2022-08-19T10:26:59;99788.59;;;33.77;39.40
55675;BME280;41562;44.330;23.802;2022-08-19T10:29:27;99784.28;;;33.76;42.35
55675;BME280;41562;44.330;23.802;2022-08-19T10:32:03;99782.81;;;33.72;43.93
55675;BME280;41562;44.330;23.802;2022-08-19T10:34:38;99773.19;;;33.76;41.01
55675;BME280;41562;44.330;23.802;2022-08-19T10:37:16;99778.63;;;33.51;39.00
55675;BME280;41562;44.330;23.802;2022-08-19T10:39:55;99774.88;;;33.58;41.47
55675;BME280;41562;44.330;23.802;2022-08-19T10:42:22;99774.22;;;33.66;40.46
55675;BME280;41562;44.330;23.802;2022-08-19T10:44:49;99773.00;;;33.67;42.53
55675;BME280;41562;44.330;23.802;2022-08-19T10:47:18;99782.63;;;33.79;40.54
55675;BME280;41562;44.330;23.802;2022-08-19T10:49:52;99780.06;;;33.56;39.32
55675;BME280;41562;44.330;23.802;2022-08-19T10:52:22;99776.66;;;33.64;39.53
55675;BME280;41562;44.330;23.802;2022-08-19T10:54:58;99773.31;;;33.57;38.48
55675;BME280;41562;44.330;23.802;2022-08-19T10:57:31;99769.06;;;33.52;40.01
55675;BME280;41562;44.330;23.802;2022-08-19T11:00:21;99767.66;;;33.60;41.52
55675;BME280;41562;44.330;23.802;2022-08-19T11:02:48;99762.53;;;33.75;41.99
55675;BME280;41562;44.330;23.802;2022-08-19T11:05:16;99771.63;;;33.75;37.31
55675;BME280;41562;44.330;23.802;2022-08-19T11:07:48;99759.84;;;33.71;39.36
55675;BME280;41562;44.330;23.802;2022-08-19T11:10:15;99758.31;;;33.54;38.11
55675;BME280;41562;44.330;23.802;2022-08-19T11:12:52;99751.09;;;33.44;39.78
55675;BME280;41562;44.330;23.802;2022-08-19T11:15:19;99751.22;;;33.53;39.32
55675;BME280;41562;44.330;23.802;2022-08-19T11:17:47;99755.44;;;33.29;40.01
55675;BME280;41562;44.330;23.802;2022-08-19T11:20:21;99748.44;;;33.24;40.65
55675;BME280;41562;44.330;23.802;2022-08-19T11:22:48;99742.84;;;32.95;39.17
55675;BME280;41562;44.330;23.802;2022-08-19T11:25:18;99737.59;;;33.13;40.02
55675;BME280;41562;44.330;23.802;2022-08-19T11:27:54;99740.47;;;33.10;40.06
55675;BME280;41562;44.330;23.802;2022-08-19T11:30:22;99738.50;;;33.10;38.58
55675;BME280;41562;44.330;23.802;2022-08-19T11:32:55;99739.00;;;33.22;38.44
55675;BME280;41562;44.330;23.802;2022-08-19T11:35:23;99740.38;;;33.30;38.87
55675;BME280;41562;44.330;23.802;2022-08-19T11:37:53;99729.28;;;33.30;38.60
55675;BME280;41562;44.330;23.802;2022-08-19T11:40:20;99732.78;;;33.46;39.48
55675;BME280;41562;44.330;23.802;2022-08-19T11:42:48;99719.22;;;33.36;37.68
55675;BME280;41562;44.330;23.802;2022-08-19T11:45:18;99725.19;;;33.34;37.33
55675;BME280;41562;44.330;23.802;2022-08-19T11:47:48;99721.88;;;33.39;36.58
55675;BME280;41562;44.330;23.802;2022-08-19T11:50:20;99717.06;;;33.27;38.29
55675;BME280;41562;44.330;23.802;2022-08-19T11:52:48;99711.09;;;33.29;36.24
55675;BME280;41562;44.330;23.802;2022-08-19T11:55:20;99709.81;;;33.17;37.03
55675;BME280;41562;44.330;23.802;2022-08-19T11:57:48;99708.69;;;33.31;37.53
55675;BME280;41562;44.330;23.802;2022-08-19T12:00:15;99706.97;;;33.21;39.11
55675;BME280;41562;44.330;23.802;2022-08-19T12:02:46;99705.34;;;33.36;39.61
55675;BME280;41562;44.330;23.802;2022-08-19T12:05:17;99705.13;;;33.14;37.52
55675;BME280;41562;44.330;23.802;2022-08-19T12:07:44;99697.28;;;32.96;37.56
55675;BME280;41562;44.330;23.802;2022-08-19T12:10:14;99694.63;;;32.93;37.10
55675;BME280;41562;44.330;23.802;2022-08-19T12:12:45;99696.69;;;33.05;38.91
55675;BME280;41562;44.330;23.802;2022-08-19T12:15:38;99684.50;;;33.15;37.61
55675;BME280;41562;44.330;23.802;2022-08-19T12:18:06;99686.50;;;33.14;39.22
55675;BME280;41562;44.330;23.802;2022-08-19T12:20:41;99683.25;;;33.03;38.33
55675;BME280;41562;44.330;23.802;2022-08-19T12:23:10;99675.13;;;32.96;37.66
55675;BME280;41562;44.330;23.802;2022-08-19T12:25:37;99673.97;;;32.81;37.32
55675;BME280;41562;44.330;23.802;2022-08-19T12:28:10;99670.84;;;32.79;37.20
55675;BME280;41562;44.330;23.802;2022-08-19T12:30:38;99666.31;;;32.85;36.05
55675;BME280;41562;44.330;23.802;2022-08-19T12:33:05;99667.78;;;32.90;36.97
55675;BME280;41562;44.330;23.802;2022-08-19T12:35:39;99665.25;;;32.95;36.23
55675;BME280;41562;44.330;23.802;2022-08-19T12:38:17;99663.50;;;33.01;36.33
55675;BME280;41562;44.330;23.802;2022-08-19T12:40:51;99665.06;;;33.02;37.11
55675;BME280;41562;44.330;23.802;2022-08-19T12:43:25;99658.06;;;32.98;37.37
55675;BME280;41562;44.330;23.802;2022-08-19T12:46:04;99663.91;;;32.87;37.46
55675;BME280;41562;44.330;23.802;2022-08-19T12:48:37;99662.19;;;32.77;35.80
55675;BME280;41562;44.330;23.802;2022-08-19T12:51:08;99656.63;;;32.77;37.12
55675;BME280;41562;44.330;23.802;2022-08-19T12:53:38;99653.34;;;32.82;36.16
55675;BME280;41562;44.330;23.802;2022-08-19T12:56:07;99649.53;;;32.92;35.85
55675;BME280;41562;44.330;23.802;2022-08-19T12:58:38;99649.22;;;33.03;35.17
55675;BME280;41562;44.330;23.802;2022-08-19T13:01:16;99651.22;;;33.02;36.18
55675;BME280;41562;44.330;23.802;2022-08-19T13:03:49;99649.34;;;32.99;36.06
55675;BME280;41562;44.330;23.802;2022-08-19T13:06:18;99636.81;;;33.07;36.44
55675;BME280;41562;44.330;23.802;2022-08-19T13:08:46;99639.38;;;33.14;37.96
55675;BME280;41562;44.330;23.802;2022-08-19T13:11:18;99636.97;;;33.17;36.20
55675;BME280;41562;44.330;23.802;2022-08-19T13:13:52;99635.06;;;33.13;35.65
55675;BME280;41562;44.330;23.802;2022-08-19T13:16:23;99641.16;;;33.08;35.59
55675;BME280;41562;44.330;23.802;2022-08-19T13:18:51;99635.94;;;33.10;41.08
55675;BME280;41562;44.330;23.802;2022-08-19T13:21:19;99624.31;;;33.16;39.33
55675;BME280;41562;44.330;23.802;2022-08-19T13:23:49;99630.22;;;33.18;37.70
55675;BME280;41562;44.330;23.802;2022-08-19T13:26:17;99624.81;;;33.27;39.09